Time,TemperatureF,DewpointF,PressureIn,WindDirection,WindDirectionDegrees,WindSpeedMPH,WindSpeedGustMPH,Humidity,HourlyPrecipIn,Conditions,Clouds,dailyrainin,SoftwareType,DateUTC
2013-03-21 00:15:00,43.8,28.7,29.78,North,5,2.0,2.0,55,0.00,,,0.00,Wunderground v.1.15,2013-03-21 04:15:00,
2013-03-21 00:21:00,44.0,28.4,29.78,North,5,1.0,2.0,54,0.00,,,0.00,Wunderground v.1.15,2013-03-21 04:21:00,
2013-03-21 00:25:00,44.0,28.0,29.78,North,5,1.0,1.0,53,0.00,,,0.00,Wunderground v.1.15,2013-03-21 04:25:00,
2013-03-21 00:41:00,43.6,27.1,29.78,North,360,1.0,1.0,52,0.00,,,0.00,Wunderground v.1.15,2013-03-21 04:41:00,
2013-03-21 00:55:00,43.5,27.0,29.80,North,355,1.0,1.0,52,0.00,,,0.00,Wunderground v.1.15,2013-03-21 04:55:00,
2013-03-21 01:01:00,43.5,26.6,29.80,NNE,12,2.0,2.0,51,0.00,,,0.00,Wunderground v.1.15,2013-03-21 05:01:00,
2013-03-21 01:06:00,43.5,26.1,29.80,NNE,24,3.0,5.0,50,0.00,,,0.00,Wunderground v.1.15,2013-03-21 05:06:00,
2013-03-21 01:15:00,43.3,26.4,29.79,NNE,24,6.0,6.0,51,0.00,,,0.00,Wunderground v.1.15,2013-03-21 05:15:00,
2013-03-21 01:25:00,42.7,26.7,29.79,NNW,339,4.0,4.0,53,0.00,,,0.00,Wunderground v.1.15,2013-03-21 05:25:00,
2013-03-21 01:31:00,42.5,26.6,29.79,North,5,4.0,4.0,53,0.00,,,0.00,Wunderground v.1.15,2013-03-21 05:31:00,
2013-03-21 01:41:00,42.3,26.8,29.78,North,9,5.0,5.0,54,0.00,,,0.00,Wunderground v.1.15,2013-03-21 05:41:00,
2013-03-21 01:45:00,42.1,26.2,29.78,NNE,28,5.0,10.0,53,0.00,,,0.00,Wunderground v.1.15,2013-03-21 05:45:00,
2013-03-21 01:55:00,41.6,26.2,29.78,NNE,13,6.0,6.0,54,0.00,,,0.00,Wunderground v.1.15,2013-03-21 05:55:00,
2013-03-21 02:01:00,41.3,26.3,29.78,North,350,5.0,5.0,55,0.00,,,0.00,Wunderground v.1.15,2013-03-21 06:01:00,
2013-03-21 02:06:00,41.1,26.6,29.77,NNW,341,4.0,5.0,56,0.00,,,0.00,Wunderground v.1.15,2013-03-21 06:06:00,
2013-03-21 02:15:00,40.6,26.1,29.77,NNE,24,5.0,5.0,56,0.00,,,0.00,Wunderground v.1.15,2013-03-21 06:15:00,
2013-03-21 02:25:00,40.4,26.4,29.76,North,349,7.0,8.0,57,0.00,,,0.00,Wunderground v.1.15,2013-03-21 06:25:00,
2013-03-21 02:36:00,40.1,26.5,29.76,NNE,32,6.0,6.0,58,0.00,,,0.00,Wunderground v.1.15,2013-03-21 06:36:00,
2013-03-21 02:45:00,39.7,26.9,29.77,North,5,4.0,7.0,60,0.00,,,0.00,Wunderground v.1.15,2013-03-21 06:45:00,
2013-03-21 02:55:00,39.5,26.8,29.77,NNE,21,6.0,9.0,60,0.00,,,0.00,Wunderground v.1.15,2013-03-21 06:55:00,
2013-03-21 03:01:00,39.5,26.8,29.77,NNE,28,6.0,7.0,60,0.00,,,0.00,Wunderground v.1.15,2013-03-21 07:01:00,
2013-03-21 03:06:00,39.4,26.7,29.77,North,5,6.0,7.0,60,0.00,,,0.00,Wunderground v.1.15,2013-03-21 07:06:00,
2013-03-21 03:15:00,39.0,26.7,29.77,North,9,4.0,5.0,61,0.00,,,0.00,Wunderground v.1.15,2013-03-21 07:15:00,
2013-03-21 03:25:00,38.8,26.9,29.76,NNE,15,6.0,6.0,62,0.00,,,0.00,Wunderground v.1.15,2013-03-21 07:25:00,
2013-03-21 03:31:00,38.6,27.1,29.76,North,355,5.0,6.0,63,0.00,,,0.00,Wunderground v.1.15,2013-03-21 07:31:00,
2013-03-21 03:41:00,38.3,27.2,29.77,NNE,23,4.0,4.0,64,0.00,,,0.00,Wunderground v.1.15,2013-03-21 07:41:00,
2013-03-21 03:55:00,38.0,26.9,29.77,NNE,26,4.0,4.0,64,0.00,,,0.00,Wunderground v.1.15,2013-03-21 07:55:00,
2013-03-21 04:06:00,37.8,27.1,29.77,NNE,32,4.0,4.0,65,0.00,,,0.00,Wunderground v.1.15,2013-03-21 08:06:00,
2013-03-21 04:15:00,37.5,27.2,29.77,NE,39,4.0,5.0,66,0.00,,,0.00,Wunderground v.1.15,2013-03-21 08:15:00,
2013-03-21 04:25:00,37.3,27.3,29.77,NE,38,3.0,3.0,67,0.00,,,0.00,Wunderground v.1.15,2013-03-21 08:25:00,
2013-03-21 04:36:00,37.0,27.4,29.77,NNE,15,5.0,8.0,68,0.00,,,0.00,Wunderground v.1.15,2013-03-21 08:36:00,
2013-03-21 04:45:00,36.9,27.7,29.78,NNE,19,6.0,8.0,69,0.00,,,0.00,Wunderground v.1.15,2013-03-21 08:45:00,
2013-03-21 04:51:00,36.7,27.8,29.78,NNE,26,5.0,8.0,70,0.00,,,0.00,Wunderground v.1.15,2013-03-21 08:51:00,
2013-03-21 05:06:00,35.9,27.7,29.79,NNW,345,7.0,7.0,72,0.00,,,0.00,Wunderground v.1.15,2013-03-21 09:06:00,
2013-03-21 05:15:00,35.4,26.6,29.79,NNE,22,7.0,7.0,70,0.00,,,0.00,Wunderground v.1.15,2013-03-21 09:15:00,
2013-03-21 05:25:00,35.1,26.3,29.79,NNE,24,6.0,6.0,70,0.00,,,0.00,Wunderground v.1.15,2013-03-21 09:25:00,
2013-03-21 05:31:00,35.1,26.3,29.79,NNW,330,5.0,6.0,70,0.00,,,0.00,Wunderground v.1.15,2013-03-21 09:31:00,
2013-03-21 05:45:00,35.1,25.9,29.79,North,355,5.0,5.0,69,0.00,,,0.00,Wunderground v.1.15,2013-03-21 09:45:00,
2013-03-21 05:51:00,35.0,26.2,29.80,North,350,4.0,5.0,70,0.00,,,0.00,Wunderground v.1.15,2013-03-21 09:51:00,
2013-03-21 06:15:00,35.0,25.9,29.80,North,5,3.0,4.0,69,0.00,,,0.00,Wunderground v.1.15,2013-03-21 10:15:00,
2013-03-21 06:21:00,35.0,25.5,29.80,North,350,3.0,4.0,68,0.00,,,0.00,Wunderground v.1.15,2013-03-21 10:21:00,
2013-03-21 06:41:00,35.0,24.8,29.80,NNW,346,3.0,3.0,66,0.00,,,0.00,Wunderground v.1.15,2013-03-21 10:41:00,
2013-03-21 06:55:00,35.0,24.4,29.80,NNW,345,3.0,5.0,65,0.00,,,0.00,Wunderground v.1.15,2013-03-21 10:55:00,
2013-03-21 07:01:00,34.9,23.9,29.81,NNE,16,4.0,4.0,64,0.00,,,0.00,Wunderground v.1.15,2013-03-21 11:01:00,
2013-03-21 07:11:00,34.4,23.8,29.81,NE,34,3.0,7.0,65,0.00,,,0.00,Wunderground v.1.15,2013-03-21 11:11:00,
2013-03-21 07:21:00,33.9,23.4,29.80,NE,43,4.0,4.0,65,0.00,,,0.00,Wunderground v.1.15,2013-03-21 11:21:00,
2013-03-21 07:31:00,33.8,22.9,29.80,North,355,5.0,5.0,64,0.00,,,0.00,Wunderground v.1.15,2013-03-21 11:31:00,
2013-03-21 07:45:00,34.2,22.5,29.80,North,349,3.0,3.0,62,0.00,,,0.00,Wunderground v.1.15,2013-03-21 11:45:00,
2013-03-21 07:51:00,34.4,22.7,29.80,North,355,2.0,3.0,62,0.00,,,0.00,Wunderground v.1.15,2013-03-21 11:51:00,
2013-03-21 08:01:00,34.5,22.8,29.80,North,9,3.0,3.0,62,0.00,,,0.00,Wunderground v.1.15,2013-03-21 12:01:00,
2013-03-21 08:11:00,34.6,22.1,29.81,NNW,344,5.0,5.0,60,0.00,,,0.00,Wunderground v.1.15,2013-03-21 12:11:00,
2013-03-21 08:25:00,34.0,23.1,29.81,NNE,26,4.0,4.0,64,0.00,,,0.00,Wunderground v.1.15,2013-03-21 12:25:00,
2013-03-21 08:31:00,33.9,23.0,29.81,NNE,16,4.0,5.0,64,0.00,,,0.00,Wunderground v.1.15,2013-03-21 12:31:00,
2013-03-21 08:45:00,33.9,23.0,29.80,NNE,19,4.0,4.0,64,0.00,,,0.00,Wunderground v.1.15,2013-03-21 12:45:00,
2013-03-21 08:51:00,33.9,22.2,29.81,NNW,335,5.0,5.0,62,0.00,,,0.00,Wunderground v.1.15,2013-03-21 12:51:00,
2013-03-21 09:15:00,33.9,20.3,29.80,North,360,5.0,8.0,57,0.00,,,0.00,Wunderground v.1.15,2013-03-21 13:15:00,
2013-03-21 09:21:00,34.2,20.1,29.80,NNE,22,5.0,8.0,56,0.00,,,0.00,Wunderground v.1.15,2013-03-21 13:21:00,
2013-03-21 09:36:00,34.4,19.0,29.79,NNW,348,5.0,12.0,53,0.00,,,0.00,Wunderground v.1.15,2013-03-21 13:36:00,
2013-03-21 09:45:00,35.0,18.7,29.79,NNW,337,5.0,12.0,51,0.00,,,0.00,Wunderground v.1.15,2013-03-21 13:45:00,
2013-03-21 09:55:00,35.3,18.0,29.79,NNW,342,5.0,5.0,49,0.00,,,0.00,Wunderground v.1.15,2013-03-21 13:55:00,
2013-03-21 10:01:00,35.6,18.3,29.79,NNW,332,5.0,5.0,49,0.00,,,0.00,Wunderground v.1.15,2013-03-21 14:01:00,
2013-03-21 10:11:00,35.7,18.4,29.79,NNE,26,6.0,7.0,49,0.00,,,0.00,Wunderground v.1.15,2013-03-21 14:11:00,
2013-03-21 10:25:00,35.7,18.4,29.79,North,355,6.0,7.0,49,0.00,,,0.00,Wunderground v.1.15,2013-03-21 14:25:00,
2013-03-21 10:31:00,35.9,18.6,29.79,NNE,24,6.0,7.0,49,0.00,,,0.00,Wunderground v.1.15,2013-03-21 14:31:00,
2013-03-21 10:41:00,35.7,18.9,29.79,NNW,327,6.0,6.0,50,0.00,,,0.00,Wunderground v.1.15,2013-03-21 14:41:00,
2013-03-21 10:51:00,36.3,18.9,29.78,North,355,4.0,4.0,49,0.00,,,0.00,Wunderground v.1.15,2013-03-21 14:51:00,
2013-03-21 11:01:00,37.1,19.2,29.78,North,351,3.0,10.0,48,0.00,,,0.00,Wunderground v.1.15,2013-03-21 15:01:00,
2013-03-21 11:06:00,37.3,18.4,29.78,NNE,25,5.0,12.0,46,0.00,,,0.00,Wunderground v.1.15,2013-03-21 15:06:00,
2013-03-21 11:15:00,36.6,18.7,29.79,North,11,7.0,7.0,48,0.00,,,0.00,Wunderground v.1.15,2013-03-21 15:15:00,
2013-03-21 11:25:00,36.0,17.2,29.78,WNW,296,5.0,5.0,46,0.00,,,0.00,Wunderground v.1.15,2013-03-21 15:25:00,
2013-03-21 11:31:00,36.2,17.9,29.78,West,280,4.0,5.0,47,0.00,,,0.00,Wunderground v.1.15,2013-03-21 15:31:00,
2013-03-21 11:41:00,36.9,18.5,29.78,NNW,335,4.0,4.0,47,0.00,,,0.00,Wunderground v.1.15,2013-03-21 15:41:00,
2013-03-21 11:51:00,37.2,19.3,29.78,NNE,24,4.0,4.0,48,0.00,,,0.00,Wunderground v.1.15,2013-03-21 15:51:00,
2013-03-21 12:01:00,38.0,19.0,29.77,NNW,335,3.0,3.0,46,0.00,,,0.00,Wunderground v.1.15,2013-03-21 16:01:00,
2013-03-21 12:11:00,38.7,19.7,29.77,NNW,339,4.0,4.0,46,0.00,,,0.00,Wunderground v.1.15,2013-03-21 16:11:00,
2013-03-21 12:21:00,38.7,18.1,29.77,NNW,342,6.0,6.0,43,0.00,,,0.00,Wunderground v.1.15,2013-03-21 16:21:00,
2013-03-21 12:41:00,39.7,20.6,29.77,NNW,346,4.0,5.0,46,0.00,,,0.00,Wunderground v.1.15,2013-03-21 16:41:00,
2013-03-21 12:55:00,38.6,19.1,29.76,North,360,5.0,5.0,45,0.00,,,0.00,Wunderground v.1.15,2013-03-21 16:55:00,
2013-03-21 13:15:00,38.3,18.8,29.75,North,355,5.0,5.0,45,0.00,,,0.00,Wunderground v.1.15,2013-03-21 17:15:00,
2013-03-21 13:21:00,39.3,19.2,29.76,West,262,4.0,6.0,44,0.00,,,0.00,Wunderground v.1.15,2013-03-21 17:21:00,
2013-03-21 13:31:00,39.6,18.9,29.76,NNW,335,4.0,9.0,43,0.00,,,0.00,Wunderground v.1.15,2013-03-21 17:31:00,
2013-03-21 13:45:00,39.2,18.5,29.75,NNE,21,4.0,4.0,43,0.00,,,0.00,Wunderground v.1.15,2013-03-21 17:45:00,
2013-03-21 13:51:00,39.1,17.9,29.75,North,5,5.0,5.0,42,0.00,,,0.00,Wunderground v.1.15,2013-03-21 17:51:00,
2013-03-21 14:06:00,38.8,17.6,29.75,NNW,348,5.0,5.0,42,0.00,,,0.00,Wunderground v.1.15,2013-03-21 18:06:00,
2013-03-21 14:15:00,38.4,17.8,29.75,West,263,6.0,6.0,43,0.00,,,0.00,Wunderground v.1.15,2013-03-21 18:15:00,
2013-03-21 14:21:00,38.3,17.7,29.75,NNW,336,5.0,5.0,43,0.00,,,0.00,Wunderground v.1.15,2013-03-21 18:21:00,
2013-03-21 14:36:00,38.6,18.5,29.75,NNW,330,5.0,5.0,44,0.00,,,0.00,Wunderground v.1.15,2013-03-21 18:36:00,
2013-03-21 14:41:00,38.6,19.1,29.75,NNE,22,6.0,6.0,45,0.00,,,0.00,Wunderground v.1.15,2013-03-21 18:41:00,
2013-03-21 14:51:00,38.7,20.2,29.75,NNW,348,7.0,7.0,47,0.00,,,0.00,Wunderground v.1.15,2013-03-21 18:51:00,
2013-03-21 15:01:00,38.3,19.3,29.74,NNW,329,5.0,7.0,46,0.00,,,0.00,Wunderground v.1.15,2013-03-21 19:01:00,
2013-03-21 15:15:00,37.8,17.8,29.74,North,351,6.0,6.0,44,0.00,,,0.00,Wunderground v.1.15,2013-03-21 19:15:00,
2013-03-21 15:25:00,37.7,18.2,29.74,NNW,342,4.0,4.0,45,0.00,,,0.00,Wunderground v.1.15,2013-03-21 19:25:00,
2013-03-21 15:31:00,38.4,17.8,29.75,NNE,20,4.0,5.0,43,0.00,,,0.00,Wunderground v.1.15,2013-03-21 19:31:00,
2013-03-21 15:36:00,38.0,17.5,29.75,NNW,340,6.0,6.0,43,0.00,,,0.00,Wunderground v.1.15,2013-03-21 19:36:00,
2013-03-21 15:45:00,38.5,16.8,29.75,NNE,17,6.0,7.0,41,0.00,,,0.00,Wunderground v.1.15,2013-03-21 19:45:00,
2013-03-21 15:51:00,38.3,17.7,29.75,North,9,6.0,7.0,43,0.00,,,0.00,Wunderground v.1.15,2013-03-21 19:51:00,
2013-03-21 16:06:00,37.5,16.5,29.75,North,360,6.0,9.0,42,0.00,,,0.00,Wunderground v.1.15,2013-03-21 20:06:00,
2013-03-21 16:15:00,36.8,16.4,29.75,WNW,294,4.0,9.0,43,0.00,,,0.00,Wunderground v.1.15,2013-03-21 20:15:00,
2013-03-21 16:21:00,36.8,16.4,29.75,West,271,4.0,8.0,43,0.00,,,0.00,Wunderground v.1.15,2013-03-21 20:21:00,
2013-03-21 16:36:00,37.5,15.9,29.75,NNW,340,6.0,6.0,41,0.00,,,0.00,Wunderground v.1.15,2013-03-21 20:36:00,
2013-03-21 16:45:00,37.4,15.2,29.75,West,279,4.0,5.0,40,0.00,,,0.00,Wunderground v.1.15,2013-03-21 20:45:00,
2013-03-21 16:51:00,37.9,16.3,29.75,North,355,4.0,5.0,41,0.00,,,0.00,Wunderground v.1.15,2013-03-21 20:51:00,
2013-03-21 17:15:00,37.6,14.2,29.76,North,350,5.0,5.0,38,0.00,,,0.00,Wunderground v.1.15,2013-03-21 21:15:00,
2013-03-21 17:21:00,37.0,14.3,29.76,NW,317,6.0,6.0,39,0.00,,,0.00,Wunderground v.1.15,2013-03-21 21:21:00,
2013-03-21 17:31:00,36.8,15.3,29.76,North,355,4.0,5.0,41,0.00,,,0.00,Wunderground v.1.15,2013-03-21 21:31:00,
2013-03-21 17:45:00,35.7,14.8,29.78,West,267,4.0,4.0,42,0.00,,,0.00,Wunderground v.1.15,2013-03-21 21:45:00,
2013-03-21 17:51:00,35.5,14.1,29.78,NE,49,4.0,4.0,41,0.00,,,0.00,Wunderground v.1.15,2013-03-21 21:51:00,
2013-03-21 18:01:00,35.4,14.0,29.79,North,5,6.0,10.0,41,0.00,,,0.00,Wunderground v.1.15,2013-03-21 22:01:00,
2013-03-21 18:06:00,35.3,14.5,29.79,NNW,338,5.0,10.0,42,0.00,,,0.00,Wunderground v.1.15,2013-03-21 22:06:00,
2013-03-21 18:15:00,35.1,14.3,29.79,NNE,30,4.0,4.0,42,0.00,,,0.00,Wunderground v.1.15,2013-03-21 22:15:00,
2013-03-21 18:25:00,35.0,14.2,29.80,NNW,344,3.0,3.0,42,0.00,,,0.00,Wunderground v.1.15,2013-03-21 22:25:00,
2013-03-21 18:31:00,34.8,14.0,29.80,WNW,282,4.0,4.0,42,0.00,,,0.00,Wunderground v.1.15,2013-03-21 22:31:00,
2013-03-21 18:41:00,34.6,13.8,29.80,WNW,297,3.0,3.0,42,0.00,,,0.00,Wunderground v.1.15,2013-03-21 22:41:00,
2013-03-21 18:55:00,34.4,13.6,29.81,NNW,343,5.0,5.0,42,0.00,,,0.00,Wunderground v.1.15,2013-03-21 22:55:00,
2013-03-21 19:15:00,34.2,13.5,29.82,NW,308,3.0,4.0,42,0.00,,,0.00,Wunderground v.1.15,2013-03-21 23:15:00,
2013-03-21 19:21:00,34.2,14.0,29.82,NW,310,3.0,4.0,43,0.00,,,0.00,Wunderground v.1.15,2013-03-21 23:21:00,
2013-03-21 19:41:00,33.8,13.1,29.83,West,279,4.0,7.0,42,0.00,,,0.00,Wunderground v.1.15,2013-03-21 23:41:00,
2013-03-21 19:55:00,33.4,12.7,29.83,NNW,347,3.0,11.0,42,0.00,,,0.00,Wunderground v.1.15,2013-03-21 23:55:00,
2013-03-21 20:01:00,33.2,12.6,29.84,NNW,344,4.0,4.0,42,0.00,,,0.00,Wunderground v.1.15,2013-03-22 00:01:00,
2013-03-21 20:15:00,32.8,12.7,29.84,NNW,330,4.0,4.0,43,0.00,,,0.00,Wunderground v.1.15,2013-03-22 00:15:00,
2013-03-21 20:25:00,32.5,12.5,29.85,NNW,336,4.0,4.0,43,0.00,,,0.00,Wunderground v.1.15,2013-03-22 00:25:00,
2013-03-21 20:31:00,32.3,12.8,29.85,NW,309,3.0,4.0,44,0.00,,,0.00,Wunderground v.1.15,2013-03-22 00:31:00,
2013-03-21 20:41:00,32.1,12.6,29.85,NNW,346,3.0,3.0,44,0.00,,,0.00,Wunderground v.1.15,2013-03-22 00:41:00,
2013-03-21 20:55:00,31.8,12.8,29.86,NE,34,3.0,5.0,45,0.00,,,0.00,Wunderground v.1.15,2013-03-22 00:55:00,
2013-03-21 21:01:00,31.8,12.8,29.86,WNW,292,3.0,3.0,45,0.00,,,0.00,Wunderground v.1.15,2013-03-22 01:01:00,
2013-03-21 21:11:00,31.6,12.7,29.87,NNW,348,4.0,8.0,45,0.00,,,0.00,Wunderground v.1.15,2013-03-22 01:11:00,
2013-03-21 21:21:00,31.5,13.1,29.87,North,5,2.0,3.0,46,0.00,,,0.00,Wunderground v.1.15,2013-03-22 01:21:00,
2013-03-21 21:45:00,30.8,12.4,29.88,NNW,336,2.0,2.0,46,0.00,,,0.00,Wunderground v.1.15,2013-03-22 01:45:00,
2013-03-21 21:51:00,30.8,12.4,29.88,NNE,14,3.0,3.0,46,0.00,,,0.00,Wunderground v.1.15,2013-03-22 01:51:00,
2013-03-21 22:01:00,30.8,12.4,29.88,West,279,2.0,2.0,46,0.00,,,0.00,Wunderground v.1.15,2013-03-22 02:01:00,
2013-03-21 22:11:00,30.7,12.8,29.88,NW,321,2.0,2.0,47,0.00,,,0.00,Wunderground v.1.15,2013-03-22 02:11:00,
2013-03-21 22:25:00,30.6,12.2,29.88,North,350,2.0,3.0,46,0.00,,,0.00,Wunderground v.1.15,2013-03-22 02:25:00,
2013-03-21 22:31:00,30.6,12.2,29.88,NNW,338,2.0,3.0,46,0.00,,,0.00,Wunderground v.1.15,2013-03-22 02:31:00,
2013-03-21 22:45:00,30.5,12.6,29.88,WNW,296,2.0,2.0,47,0.00,,,0.00,Wunderground v.1.15,2013-03-22 02:45:00,
2013-03-21 22:51:00,30.5,12.6,29.89,NNW,342,2.0,2.0,47,0.00,,,0.00,Wunderground v.1.15,2013-03-22 02:51:00,
2013-03-21 23:01:00,30.4,12.5,29.89,North,355,2.0,2.0,47,0.00,,,0.00,Wunderground v.1.15,2013-03-22 03:01:00,
2013-03-21 23:15:00,30.4,13.0,29.90,WNW,291,1.0,3.0,48,0.00,,,0.00,Wunderground v.1.15,2013-03-22 03:15:00,
2013-03-21 23:21:00,30.3,12.9,29.89,NNW,330,1.0,3.0,48,0.00,,,0.00,Wunderground v.1.15,2013-03-22 03:21:00,
2013-03-21 23:41:00,30.2,13.3,29.90,WNW,296,2.0,3.0,49,0.00,,,0.00,Wunderground v.1.15,2013-03-22 03:41:00,
2013-03-21 23:55:00,29.9,13.0,29.90,WNW,297,0.0,1.0,49,0.00,,,0.00,Wunderground v.1.15,2013-03-22 03:55:00,